UNTT/TOF METAR and TAF weather

Enter ICAO airport designator
Station Type Date Time Source
UNTT METAR 2022/06/30 12:30 UTC NOAA

UNTT 301230Z 22007MPS CAVOK 17/06 Q1000 R21/////// NOSIG RMK QFE735


Station Type Date Time Source
UNTT Decoded METAR 2022/06/30 12:30 UTC NOAA

Station name not available
Jun 30, 2022 - 08:30 AM EDT / 2022.06.30 1230 UTC
Wind: from the SW (220 degrees) at 16 MPH (14 KT):0
Visibility: greater than 7 mile(s):0
Temperature: 62 F (17 C)
Dew Point: 42 F (6 C)
Relative Humidity: 48%
Pressure (altimeter): 29.53 in. Hg (1000 hPa)
ob: UNTT 301230Z 22007MPS CAVOK 17/06 Q1000 R21/////// NOSIG RMK QFE735
cycle: 12

Station Type Date Time Source
UNTT TAF UTC NOAA

Error!

Example: see airport list